AFR090 LFPG-KMIA
Flight info
| Callsign | AFR090 |
|---|---|
| Flight time | N/A |
| Altitude | 34000 |
| Route | ELCOB UT300 SENLO DCT JSY DCT LIZAD DCT LULOX/M084F340 DCT ELSOX DCT DINIM/M084F350 NATJ SUPRY/M084F360 DCT LOMPI M202 MUNEY/M084F380 M202 ONGOT DCT PADRK M203 SNAGY/N0487F380 BNFSH3 |
| Aircraft | B77W/H-SDE1E2E3FGHIJ2J3J4J5M1RWXY/LB1D1 |
Departure
| Time | 2026-05-08 10:11 |
|---|---|
| Airport | Charles de Gaulle International Airport (LFPG) |
Arrival
| Time | N/A |
|---|---|
| Airport | Miami International Airport (KMIA) |
| Time | Latitude | Longitude | Altitude | Speed | Heading |
|---|---|---|---|---|---|
| 2026-05-08 09:51 | 49.00287 | 2.58635 | 355 ft | 0 kts | 265° |
| 2026-05-08 10:02 | 49.00288 | 2.58641 | 358 ft | 3 kts | 265° |
| 2026-05-08 10:02 | 49.00290 | 2.58681 | 361 ft | 4 kts | 264° |
| 2026-05-08 10:03 | 49.00293 | 2.58712 | 362 ft | 4 kts | 243° |
| 2026-05-08 10:03 | 49.00304 | 2.58733 | 367 ft | 4 kts | 202° |
| 2026-05-08 10:03 | 49.00329 | 2.58742 | 359 ft | 4 kts | 182° |
| 2026-05-08 10:03 | 49.00348 | 2.58742 | 366 ft | 0 kts | 176° |
| 2026-05-08 10:04 | 49.00345 | 2.58743 | 361 ft | 3 kts | 176° |
| 2026-05-08 10:05 | 49.00289 | 2.58748 | 363 ft | 12 kts | 176° |
| 2026-05-08 10:05 | 49.00188 | 2.58759 | 362 ft | 15 kts | 175° |
| 2026-05-08 10:05 | 49.00084 | 2.58762 | 361 ft | 15 kts | 189° |
| 2026-05-08 10:05 | 48.99974 | 2.58727 | 363 ft | 14 kts | 204° |
| 2026-05-08 10:06 | 48.99939 | 2.58625 | 362 ft | 11 kts | 264° |
| 2026-05-08 10:06 | 48.99931 | 2.58507 | 359 ft | 11 kts | 265° |
| 2026-05-08 10:06 | 48.99924 | 2.58339 | 361 ft | 19 kts | 266° |
| 2026-05-08 10:06 | 48.99913 | 2.58136 | 364 ft | 19 kts | 264° |
| 2026-05-08 10:07 | 48.99903 | 2.57938 | 362 ft | 19 kts | 266° |
| 2026-05-08 10:07 | 48.99893 | 2.57744 | 359 ft | 19 kts | 264° |
| 2026-05-08 10:07 | 48.99880 | 2.57544 | 361 ft | 19 kts | 264° |
| 2026-05-08 10:07 | 48.99871 | 2.57343 | 366 ft | 19 kts | 264° |
| 2026-05-08 10:08 | 48.99861 | 2.57144 | 365 ft | 19 kts | 268° |
| 2026-05-08 10:08 | 48.99852 | 2.56944 | 363 ft | 19 kts | 264° |
| 2026-05-08 10:08 | 48.99838 | 2.56743 | 359 ft | 19 kts | 264° |
| 2026-05-08 10:08 | 48.99825 | 2.56507 | 361 ft | 26 kts | 266° |
| 2026-05-08 10:09 | 48.99812 | 2.56229 | 365 ft | 26 kts | 265° |
| 2026-05-08 10:09 | 48.99799 | 2.55952 | 367 ft | 26 kts | 262° |
| 2026-05-08 10:09 | 48.99740 | 2.55819 | 367 ft | 12 kts | 189° |
| 2026-05-08 10:09 | 48.99654 | 2.55816 | 365 ft | 10 kts | 179° |
| 2026-05-08 10:10 | 48.99609 | 2.55827 | 362 ft | 3 kts | 141° |
| 2026-05-08 10:10 | 48.99602 | 2.55864 | 364 ft | 5 kts | 96° |
| 2026-05-08 10:10 | 48.99611 | 2.56040 | 359 ft | 35 kts | 85° |
| 2026-05-08 10:10 | 48.99649 | 2.56765 | 360 ft | 103 kts | 85° |
| 2026-05-08 10:11 | 48.99725 | 2.58164 | 366 ft | 159 kts | 85° |
| 2026-05-08 10:11 | 48.99828 | 2.60039 | 525 ft | 185 kts | 85° |
| 2026-05-08 10:11 | 48.99935 | 2.61957 | 1199 ft | 182 kts | 84° |
| 2026-05-08 10:11 | 49.00058 | 2.63868 | 1844 ft | 181 kts | 82° |
| 2026-05-08 10:12 | 49.00542 | 2.65648 | 2227 ft | 193 kts | 44° |
| 2026-05-08 10:12 | 49.01812 | 2.66433 | 2447 ft | 213 kts | 359° |
| 2026-05-08 10:12 | 49.03288 | 2.65716 | 2606 ft | 239 kts | 327° |
| 2026-05-08 10:12 | 49.04481 | 2.63826 | 3013 ft | 255 kts | 297° |
| 2026-05-08 10:13 | 49.04929 | 2.61203 | 3715 ft | 259 kts | 271° |
| 2026-05-08 10:13 | 49.04891 | 2.58453 | 4410 ft | 261 kts | 268° |
| 2026-05-08 10:13 | 49.04841 | 2.56618 | 4893 ft | 263 kts | 268° |
| 2026-05-08 10:13 | 49.04748 | 2.52897 | 5817 ft | 267 kts | 268° |
| 2026-05-08 10:14 | 49.04689 | 2.50054 | 6502 ft | 270 kts | 269° |
| 2026-05-08 10:14 | 49.04638 | 2.47165 | 7171 ft | 273 kts | 269° |
| 2026-05-08 10:14 | 49.04610 | 2.45237 | 7612 ft | 275 kts | 269° |
| 2026-05-08 10:14 | 49.04562 | 2.41319 | 8516 ft | 278 kts | 269° |
| 2026-05-08 10:15 | 49.04531 | 2.38350 | 9184 ft | 281 kts | 269° |
| 2026-05-08 10:15 | 49.04502 | 2.35358 | 9843 ft | 284 kts | 270° |
| 2026-05-08 10:15 | 49.04476 | 2.32358 | 10404 ft | 290 kts | 269° |
| 2026-05-08 10:15 | 49.04450 | 2.29144 | 10613 ft | 311 kts | 269° |
| 2026-05-08 10:16 | 49.04423 | 2.25733 | 10786 ft | 333 kts | 269° |
| 2026-05-08 10:16 | 49.04394 | 2.22125 | 10965 ft | 354 kts | 269° |
| 2026-05-08 10:16 | 49.04362 | 2.18253 | 11471 ft | 366 kts | 269° |
| 2026-05-08 10:16 | 49.04329 | 2.14391 | 12185 ft | 373 kts | 269° |
| 2026-05-08 10:17 | 49.04307 | 2.11689 | 12739 ft | 376 kts | 268° |